Time;durP1;ratioP1;P1;durP2;ratioP2;P2;SDS_P1;SDS_P2;PMS_P1;PMS_P2;Temp;Humidity;BMP_temperature;BMP_pressure;BME280_temperature;BME280_humidity;BME280_pressure;Samples;Min_cycle;Max_cycle;Signal;HPM_P1;HPM_P2
2021/07/27 00:01:26;;;;;;;;;20.67;19.00;;;;;25.70;64.40;99426.81;3180948;41;3573125;-54
2021/07/27 00:03:55;;;;;;;;;21.67;19.33;;;;;25.66;64.44;99422.75;3180996;41;2837723;-54
2021/07/27 00:06:24;;;;;;;;;26.00;21.00;;;;;25.43;65.30;99409.22;3192110;41;2842050;-54
2021/07/27 00:08:52;;;;;;;;;24.67;22.00;;;;;25.51;65.83;99405.50;3196616;41;3572147;-56
2021/07/27 00:11:20;;;;;;;;;21.67;17.33;;;;;25.61;65.56;99406.84;3184821;41;3573130;-55
2021/07/27 00:13:48;;;;;;;;;21.67;20.33;;;;;25.59;66.35;99406.22;3181250;41;3576259;-56
2021/07/27 00:16:16;;;;;;;;;22.67;20.33;;;;;25.52;66.90;99399.81;3182600;41;3579375;-55
2021/07/27 00:18:44;;;;;;;;;21.00;18.00;;;;;25.61;66.13;99397.75;3180836;41;3560612;-54
2021/07/27 00:21:12;;;;;;;;;28.67;23.00;;;;;25.50;66.96;99407.41;3182445;41;3596039;-54
2021/07/27 00:23:40;;;;;;;;;30.67;21.00;;;;;25.47;67.28;99405.03;3183546;41;3597061;-53
2021/07/27 00:26:13;;;;;;;;;27.33;23.67;;;;;25.31;67.75;99397.06;3195459;41;3585645;-52
2021/07/27 00:28:43;;;;;;;;;23.67;20.67;;;;;25.31;67.73;99406.16;3177451;41;3568944;-53
2021/07/27 00:31:16;;;;;;;;;27.67;21.33;;;;;25.34;68.01;99408.53;3182654;41;3580389;-53
2021/07/27 00:33:48;;;;;;;;;24.67;23.67;;;;;25.15;68.53;99401.78;3185095;41;3590837;-53
2021/07/27 00:36:16;;;;;;;;;25.33;21.67;;;;;25.10;68.85;99398.75;3183253;41;3585622;-53
2021/07/27 00:38:45;;;;;;;;;25.33;25.33;;;;;25.17;68.89;99409.81;3179907;41;2848271;-54
2021/07/27 00:41:13;;;;;;;;;21.67;20.00;;;;;25.15;68.94;99410.03;3199508;41;3565808;-53
2021/07/27 00:43:42;;;;;;;;;27.00;20.33;;;;;25.18;68.75;99406.03;3179569;41;3571043;-55
2021/07/27 00:46:10;;;;;;;;;29.00;24.33;;;;;25.22;69.08;99411.97;3200413;41;3583547;-54
2021/07/27 00:48:39;;;;;;;;;26.00;23.67;;;;;25.18;68.89;99406.88;3182500;41;2841916;-54
2021/07/27 00:51:07;;;;;;;;;27.67;21.33;;;;;25.19;69.48;99405.81;3197944;41;3596097;-53
2021/07/27 00:53:35;;;;;;;;;25.33;21.00;;;;;25.14;69.49;99405.53;3179433;41;3566876;-53
2021/07/27 00:56:07;;;;;;;;;21.67;21.00;;;;;25.11;69.56;99411.41;3178051;41;3572104;-53
2021/07/27 00:58:35;;;;;;;;;25.67;23.67;;;;;25.26;69.15;99418.81;3180707;41;3582526;-52
2021/07/27 01:01:03;;;;;;;;;27.33;23.67;;;;;25.19;69.79;99419.56;3183424;41;3592892;-53
2021/07/27 01:03:31;;;;;;;;;26.33;23.33;;;;;25.18;69.54;99417.88;3182856;41;3589765;-51
2021/07/27 01:06:00;;;;;;;;;24.00;22.00;;;;;25.23;69.59;99414.53;3183293;41;3579379;-54
2021/07/27 01:08:28;;;;;;;;;27.33;22.67;;;;;25.16;69.81;99408.13;3183379;41;3581463;-53
2021/07/27 01:10:56;;;;;;;;;27.67;25.33;;;;;25.15;70.07;99412.78;3187982;41;3592934;-53
2021/07/27 01:13:24;;;;;;;;;30.33;26.33;;;;;25.13;70.57;99416.72;3184386;41;3586675;-53
2021/07/27 01:15:53;;;;;;;;;25.67;24.00;;;;;25.04;70.85;99402.28;3180957;41;3580409;-52
2021/07/27 01:18:26;;;;;;;;;30.67;26.00;;;;;25.02;71.09;99409.00;3181822;41;3579377;-52
2021/07/27 01:37:44;;;;;;;;;29.00;24.67;;;;;24.94;71.53;99412.72;3199051;41;3577301;-53
2021/07/27 01:40:15;;;;;;;;;30.25;25.50;;;;;24.96;71.31;99416.09;3176082;41;3608530;-54
2021/07/27 01:42:44;;;;;;;;;23.67;22.67;;;;;25.00;71.26;99402.84;3198897;41;3586655;-52
2021/07/27 01:45:12;;;;;;;;;26.67;25.67;;;;;25.02;71.44;99409.84;3177836;41;3593963;-54
2021/07/27 01:47:41;;;;;;;;;31.00;27.25;;;;;24.98;71.55;99405.78;3198844;41;3612735;-55
2021/07/27 01:50:09;;;;;;;;;24.00;22.67;;;;;25.05;70.87;99406.72;3198379;41;3579376;-54
2021/07/27 01:52:45;;;;;;;;;33.75;30.00;;;;;25.04;71.03;99404.16;3181473;41;3613860;-55
2021/07/27 01:55:16;;;;;;;;;26.67;25.33;;;;;24.96;71.31;99399.63;3199252;41;3587713;-54
2021/07/27 01:57:44;;;;;;;;;23.67;21.00;;;;;24.97;71.65;99399.44;3180500;41;3576572;-55
2021/07/27 02:00:13;;;;;;;;;31.00;26.33;;;;;24.87;72.02;99406.31;3180485;41;3589792;-53
2021/07/27 02:02:41;;;;;;;;;24.67;21.67;;;;;24.90;71.57;99386.69;3196944;41;3589787;-54
2021/07/27 02:05:10;;;;;;;;;28.50;27.00;;;;;24.87;71.85;99387.06;3181838;41;3604943;-55
2021/07/27 02:07:45;;;;;;;;;22.67;22.67;;;;;24.81;72.06;99393.34;3199029;41;3581455;-55
2021/07/27 02:10:15;;;;;;;;;26.33;26.00;;;;;24.89;71.96;99377.59;3183918;41;3597075;-53
2021/07/27 02:13:25;;;;;;;;;27.33;21.67;;;;;24.76;71.90;99374.72;3187922;41;3581443;-53
2021/07/27 02:15:44;;;;;;;;;26.67;24.33;;;;;24.73;72.49;99383.34;3179208;41;3594076;-52
2021/07/27 02:18:12;;;;;;;;;27.67;24.00;;;;;24.69;72.48;99391.09;3182729;41;3588746;-53
2021/07/27 02:20:43;;;;;;;;;24.67;24.67;;;;;24.52;73.08;99384.13;3178827;41;3588747;-53
2021/07/27 02:23:10;;;;;;;;;23.00;21.33;;;;;24.83;71.82;99392.13;3182127;41;3582780;-54
2021/07/27 02:25:38;;;;;;;;;27.00;24.67;;;;;24.54;73.45;99395.78;3180217;41;3588039;-53
2021/07/27 02:28:11;;;;;;;;;27.33;21.67;;;;;24.49;73.37;99395.50;3183927;41;3592890;-53
2021/07/27 02:33:38;;;;;;;;;28.33;25.00;;;;;24.31;73.83;99393.97;3196274;41;3587733;-53
2021/07/27 02:36:06;;;;;;;;;26.67;24.33;;;;;24.41;73.83;99390.94;3186028;41;3582500;-53
2021/07/27 02:38:34;;;;;;;;;28.00;23.33;;;;;24.24;74.19;99390.28;3182998;41;3592145;-50
2021/07/27 02:41:02;;;;;;;;;28.67;26.00;;;;;24.00;75.48;99388.66;3178831;41;3587694;-53
2021/07/27 02:43:30;;;;;;;;;28.67;24.67;;;;;23.92;75.69;99394.25;3182141;41;3579418;-51
2021/07/27 02:45:58;;;;;;;;;31.33;26.67;;;;;24.03;74.99;99391.03;3179620;41;3609589;-54
2021/07/27 02:48:27;;;;;;;;;33.00;25.25;;;;;24.17;74.35;99392.09;3184731;41;3607515;-53
2021/07/27 02:51:02;;;;;;;;;29.67;24.00;;;;;23.95;75.42;99393.03;3206474;41;1907623;-51
2021/07/27 02:53:30;;;;;;;;;26.33;25.00;;;;;23.94;75.32;99399.56;3196682;41;3596038;-49
2021/07/27 02:56:00;;;;;;;;;26.00;24.00;;;;;23.97;75.79;99396.44;3182765;41;3585895;-51
2021/07/27 02:58:32;;;;;;;;;25.33;25.33;;;;;23.76;76.43;99397.16;3183476;41;3600244;-51
2021/07/27 03:01:01;;;;;;;;;27.00;25.33;;;;;23.90;75.51;99395.47;3174090;41;3596038;-51
2021/07/27 03:03:30;;;;;;;;;27.00;25.67;;;;;23.90;75.24;99392.72;3182736;41;3589788;-51
2021/07/27 03:06:01;;;;;;;;;24.00;23.00;;;;;24.01;74.32;99393.13;3183116;41;3576247;-51
2021/07/27 03:11:17;;;;;;;;;26.67;21.33;;;;;23.76;75.73;99402.66;3179837;41;3589789;-52
2021/07/27 03:13:45;;;;;;;;;26.00;23.00;;;;;23.83;74.94;99404.47;3198133;41;3578337;-52
2021/07/27 03:16:20;;;;;;;;;23.33;22.33;;;;;23.93;74.56;99397.84;3181518;41;3571032;-51
2021/07/27 03:18:52;;;;;;;;;28.00;23.33;;;;;23.79;74.79;99389.41;3179045;41;2840983;-50
2021/07/27 03:21:24;;;;;;;;;24.67;23.00;;;;;23.84;75.01;99397.94;3196543;41;3590249;-52
2021/07/27 03:23:53;;;;;;;;;24.67;22.33;;;;;23.92;74.15;99405.22;3182457;41;3575276;-49
2021/07/27 03:26:22;;;;;;;;;21.00;21.00;;;;;24.01;74.06;99397.75;3181268;41;2836990;-52
2021/07/27 03:28:50;;;;;;;;;21.67;21.67;;;;;23.93;74.12;99406.06;3184619;41;3572077;-54
2021/07/27 03:31:21;;;;;;;;;25.67;22.00;;;;;23.84;74.73;99402.56;3184273;41;2831691;-51
2021/07/27 03:33:49;;;;;;;;;25.67;20.67;;;;;23.67;75.67;99397.22;3197667;41;3577285;-52
2021/07/27 03:36:17;;;;;;;;;25.33;22.67;;;;;23.71;75.05;99402.31;3180634;41;3573130;-51
2021/07/27 03:38:45;;;;;;;;;26.67;20.00;;;;;23.60;75.14;99406.38;3195585;41;3579379;-51
2021/07/27 03:41:13;;;;;;;;;20.00;18.67;;;;;23.71;74.91;99414.13;3182467;41;3575214;-51
2021/07/27 03:43:42;;;;;;;;;28.00;23.00;;;;;23.47;75.88;99425.31;3176267;41;2836788;-53
2021/07/27 03:46:10;;;;;;;;;25.50;21.00;;;;;23.32;76.38;99426.09;3196097;41;2842946;-51
2021/07/27 03:48:38;;;;;;;;;24.00;20.33;;;;;23.60;75.67;99422.81;3190251;41;3566896;-50
2021/07/27 03:51:06;;;;;;;;;20.33;20.33;;;;;23.80;74.46;99434.13;3182208;41;3576239;-50
2021/07/27 03:53:34;;;;;;;;;31.00;23.00;;;;;23.94;73.70;99435.22;3181768;41;3601255;-51
2021/07/27 03:56:02;;;;;;;;;21.00;19.33;;;;;23.83;74.63;99437.38;3198556;41;3564787;-54
2021/07/27 03:58:32;;;;;;;;;25.67;21.00;;;;;23.72;75.00;99437.78;3179928;41;2848255;-52
2021/07/27 04:01:05;;;;;;;;;25.00;23.00;;;;;23.93;74.30;99438.97;3200846;41;3575209;-54
2021/07/27 04:03:33;;;;;;;;;24.00;21.00;;;;;23.72;75.32;99446.00;3184837;41;3578317;-53
2021/07/27 04:06:02;;;;;;;;;27.67;21.67;;;;;23.84;75.02;99455.50;3182499;41;3588789;-54
2021/07/27 04:08:30;;;;;;;;;34.33;24.00;;;;;23.93;74.65;99449.94;3201027;41;3600216;-54
2021/07/27 04:11:05;;;;;;;;;24.67;21.00;;;;;23.71;75.85;99452.50;3185729;41;3578322;-53
2021/07/27 04:13:34;;;;;;;;;25.67;22.67;;;;;23.77;75.87;99457.28;3181381;41;3577292;-54
2021/07/27 04:16:03;;;;;;;;;27.33;24.67;;;;;23.90;75.39;99455.81;3191238;41;3586670;-53
2021/07/27 04:18:32;;;;;;;;;27.33;24.00;;;;;23.92;75.67;99457.31;3185316;41;3589803;-53
2021/07/27 04:21:01;;;;;;;;;26.67;26.00;;;;;24.27;74.52;99457.63;3186536;41;3600228;-51
2021/07/27 04:23:29;;;;;;;;;28.67;26.33;;;;;23.88;76.06;99454.13;3189083;41;3591883;-50
2021/07/27 04:25:58;;;;;;;;;34.50;23.25;;;;;23.86;76.46;99441.63;3190268;41;3612728;-52
2021/07/27 04:28:27;;;;;;;;;27.00;23.67;;;;;23.86;76.06;99437.00;3194414;41;3591895;-50
2021/07/27 04:30:55;;;;;;;;;28.33;26.67;;;;;24.22;75.02;99440.88;3200858;41;3599464;-54
2021/07/27 04:33:34;;;;;;;;;30.33;22.33;;;;;24.07;75.24;99447.22;3185628;41;3610628;-53
2021/07/27 04:36:03;;;;;;;;;26.00;23.00;;;;;24.02;75.77;99459.81;3184876;41;3587744;-51
2021/07/27 04:38:31;;;;;;;;;25.33;25.33;;;;;23.95;76.04;99453.34;3183943;41;3591939;-53
2021/07/27 04:40:59;;;;;;;;;29.33;25.33;;;;;24.03;75.55;99458.75;3186673;41;3590845;-52
2021/07/27 04:43:28;;;;;;;;;30.50;24.75;;;;;24.08;75.70;99459.91;3184728;41;3607592;-53
2021/07/27 04:46:01;;;;;;;;;31.50;25.00;;;;;24.23;75.20;99462.66;3204978;41;3621141;-52
2021/07/27 04:48:30;;;;;;;;;25.33;25.33;;;;;23.97;76.20;99456.78;3201762;41;3574172;-53
2021/07/27 04:51:01;;;;;;;;;28.67;24.33;;;;;24.31;75.42;99459.81;3191991;41;3601253;-53
2021/07/27 04:53:33;;;;;;;;;24.67;23.00;;;;;24.41;74.91;99469.66;3184814;41;3585633;-52
2021/07/27 04:56:02;;;;;;;;;21.50;21.50;;;;;24.60;74.34;99477.38;3180825;41;2842975;-52
2021/07/27 04:58:47;;;;;;;;;26.33;23.33;;;;;24.66;74.47;99484.84;3174429;41;3585606;-53
2021/07/27 05:01:15;;;;;;;;;21.00;19.33;;;;;24.68;73.31;99488.25;3180262;41;2832598;-54
2021/07/27 05:03:44;;;;;;;;;22.67;21.00;;;;;24.85;73.41;99483.38;3203705;41;3577550;-52
2021/07/27 05:06:12;;;;;;;;;26.67;23.67;;;;;24.69;73.32;99494.59;3189556;41;3580413;-51
2021/07/27 05:08:42;;;;;;;;;27.50;21.50;;;;;24.89;73.14;99497.59;3182458;41;2837775;-53
2021/07/27 05:11:10;;;;;;;;;23.33;21.67;;;;;24.91;72.14;99493.63;3182141;41;3573376;-53
2021/07/27 05:13:38;;;;;;;;;19.33;17.67;;;;;25.05;72.36;99482.78;3185543;41;3579371;-53
2021/07/27 05:16:13;;;;;;;;;20.33;18.00;;;;;25.33;70.94;99502.16;3181588;41;3575280;-52
2021/07/27 05:18:40;;;;;;;;;20.33;17.33;;;;;25.60;68.93;99498.66;3180139;41;3573444;-53
2021/07/27 05:21:08;;;;;;;;;23.00;21.00;;;;;25.21;71.51;99492.72;3178878;41;2830613;-54
2021/07/27 05:23:36;;;;;;;;;22.00;19.00;;;;;25.63;68.77;99492.75;3180583;41;3562726;-53
2021/07/27 05:26:05;;;;;;;;;22.00;17.50;;;;;25.44;69.05;99493.41;3181061;41;2832579;-49
2021/07/27 05:28:33;;;;;;;;;23.33;17.33;;;;;25.57;65.81;99488.03;3183886;41;3580404;-50
2021/07/27 05:31:05;;;;;;;;;19.67;18.33;;;;;25.54;65.79;99484.81;3178822;41;3573127;-51
2021/07/27 05:33:34;;;;;;;;;20.00;19.67;;;;;25.68;66.17;99488.56;3196711;41;3572116;-54
2021/07/27 05:36:02;;;;;;;;;20.67;16.67;;;;;25.97;66.07;99493.09;3194791;41;3563747;-50
2021/07/27 05:38:31;;;;;;;;;25.00;20.33;;;;;25.82;65.83;99496.72;3180325;41;2828516;-52
2021/07/27 05:40:58;;;;;;;;;18.00;18.00;;;;;25.73;65.19;99494.34;3196040;41;2840125;-54
2021/07/27 05:43:26;;;;;;;;;21.00;17.00;;;;;26.02;65.47;99496.09;3179528;41;3573388;-52
2021/07/27 05:45:57;;;;;;;;;19.00;16.00;;;;;26.20;65.70;99503.88;3180347;41;2818993;-52
2021/07/27 05:48:25;;;;;;;;;20.33;17.00;;;;;26.60;62.51;99504.16;3179727;41;2481847;-54
2021/07/27 05:50:52;;;;;;;;;16.00;14.67;;;;;26.54;62.00;99499.44;3195206;41;2489921;-52
2021/07/27 05:53:20;;;;;;;;;20.33;17.00;;;;;26.20;65.29;99495.59;3202340;41;3571313;-53
2021/07/27 05:55:48;;;;;;;;;17.00;17.00;;;;;26.42;64.08;99505.50;3183613;41;3555455;-51
2021/07/27 05:58:16;;;;;;;;;20.67;15.33;;;;;26.48;61.96;99501.91;3199468;41;3551768;-51
2021/07/27 06:00:44;;;;;;;;;21.33;16.00;;;;;26.65;61.61;99508.00;3182291;41;2839914;-49
2021/07/27 06:03:12;;;;;;;;;19.67;16.33;;;;;26.55;62.87;99510.25;3195813;41;3557490;-52
2021/07/27 06:05:40;;;;;;;;;20.33;15.67;;;;;26.78;61.12;99515.50;3190104;41;3539838;-50
2021/07/27 06:08:08;;;;;;;;;18.33;15.33;;;;;26.78;59.48;99520.13;3180039;41;3550244;-52
2021/07/27 06:10:36;;;;;;;;;14.67;13.67;;;;;26.90;59.06;99524.00;3180913;41;3525243;-50
2021/07/27 06:13:03;;;;;;;;;18.00;13.00;;;;;26.88;57.96;99523.34;3200857;41;3540824;-51
2021/07/27 06:15:31;;;;;;;;;19.00;16.00;;;;;27.04;58.20;99524.91;3181053;41;2825232;-57
2021/07/27 06:17:59;;;;;;;;;14.00;14.00;;;;;26.96;58.79;99530.59;3179520;41;2489821;-55
2021/07/27 06:20:27;;;;;;;;;16.00;15.00;;;;;27.07;60.08;99528.13;3198230;41;3542135;-55
2021/07/27 06:22:55;;;;;;;;;21.67;17.67;;;;;26.89;61.49;99528.69;3198978;41;3568951;-55
2021/07/27 06:25:23;;;;;;;;;17.33;17.00;;;;;26.89;61.13;99525.09;3190029;41;3571039;-56
2021/07/27 06:27:50;;;;;;;;;17.50;17.00;;;;;26.87;61.94;99518.91;3181762;41;2828357;-54
2021/07/27 06:30:18;;;;;;;;;19.33;18.00;;;;;27.14;62.03;99525.38;3184671;41;3560933;-55
2021/07/27 06:32:48;;;;;;;;;21.67;20.00;;;;;26.96;63.25;99525.09;3179057;41;3579432;-57
2021/07/27 06:35:16;;;;;;;;;19.50;16.50;;;;;27.26;60.30;99520.19;3197443;41;2829390;-54
2021/07/27 06:37:44;;;;;;;;;19.00;16.00;;;;;27.44;60.55;99527.88;3184040;41;3557522;-54
2021/07/27 06:40:12;;;;;;;;;20.00;17.33;;;;;27.78;59.42;99530.50;3183542;41;3568973;-55
2021/07/27 06:42:39;;;;;;;;;22.00;18.00;;;;;27.81;59.30;99533.94;3185230;41;3575444;-57
2021/07/27 06:45:09;;;;;;;;;22.00;19.50;;;;;27.82;59.41;99525.41;3181231;41;2830437;-55
2021/07/27 06:47:37;;;;;;;;;21.67;18.00;;;;;28.23;58.91;99539.03;3182253;41;3564029;-56
2021/07/27 06:50:05;;;;;;;;;22.00;20.00;;;;;28.18;58.57;99536.06;3180512;41;2826265;-57
2021/07/27 06:52:34;;;;;;;;;20.00;18.33;;;;;28.79;56.91;99542.38;3186141;41;2832616;-52
2021/07/27 06:55:03;;;;;;;;;17.33;16.00;;;;;28.75;57.36;99543.88;3198467;41;3557498;-55
2021/07/27 06:57:31;;;;;;;;;20.67;19.00;;;;;28.51;58.16;99546.25;3166376;41;3576517;-56
2021/07/27 06:59:59;;;;;;;;;22.00;18.33;;;;;29.23;56.85;99551.84;3183051;41;3574453;-56
2021/07/27 07:02:30;;;;;;;;;19.00;17.67;;;;;29.15;55.99;99546.53;3182131;41;3556459;-57
2021/07/27 07:04:58;;;;;;;;;18.67;16.33;;;;;29.17;55.49;99545.25;3184489;41;3573338;-56
2021/07/27 07:07:26;;;;;;;;;22.00;16.00;;;;;29.31;55.62;99546.91;3180791;41;2844018;-55
2021/07/27 07:09:55;;;;;;;;;17.00;16.00;;;;;29.25;54.81;99546.91;3182642;41;2833596;-57
2021/07/27 07:12:26;;;;;;;;;20.00;18.33;;;;;29.10;55.42;99553.59;3200916;41;3579380;-54
2021/07/27 07:14:56;;;;;;;;;18.50;15.50;;;;;29.13;56.03;99548.69;3171594;41;2823204;-57
2021/07/27 07:17:25;;;;;;;;;18.33;16.67;;;;;29.74;55.66;99557.31;3172587;41;3564800;-56
2021/07/27 07:19:54;;;;;;;;;21.67;19.00;;;;;29.64;54.56;99573.56;3184428;41;3581495;-56
2021/07/27 07:22:22;;;;;;;;;15.33;14.67;;;;;29.78;54.20;99568.81;3186792;41;3548213;-56
2021/07/27 07:24:50;;;;;;;;;18.00;16.50;;;;;29.72;54.54;99581.59;3169480;41;2829667;-56
2021/07/27 07:27:18;;;;;;;;;17.67;15.00;;;;;29.27;54.37;99575.22;3183251;41;3554362;-54
2021/07/27 07:29:46;;;;;;;;;21.00;15.00;;;;;29.50;53.67;99583.81;3181604;41;2821339;-57
2021/07/27 07:32:15;;;;;;;;;19.00;16.00;;;;;29.86;54.02;99585.16;3176316;41;2825204;-56
2021/07/27 07:34:43;;;;;;;;;16.67;15.00;;;;;30.01;54.01;99589.53;3194924;41;3546025;-57
2021/07/27 07:37:10;;;;;;;;;19.67;17.00;;;;;30.32;52.91;99578.44;3194411;41;3573107;-56
2021/07/27 07:39:39;;;;;;;;;16.67;16.67;;;;;30.43;52.81;99576.88;3176370;41;2825220;-56
2021/07/27 07:42:08;;;;;;;;;22.00;16.00;;;;;30.05;51.14;99590.78;3192040;41;2831548;-56
2021/07/27 07:44:36;;;;;;;;;18.33;14.00;;;;;30.18;50.76;99599.00;3194243;41;3543960;-55
2021/07/27 07:47:04;;;;;;;;;17.00;15.67;;;;;30.18;51.26;99596.22;3193452;41;3543969;-59
2021/07/27 07:49:32;;;;;;;;;16.00;14.00;;;;;30.10;50.47;99604.81;3175846;41;2808554;-55
2021/07/27 07:52:01;;;;;;;;;17.50;15.50;;;;;29.79;51.55;99600.13;3177467;41;2829375;-57
2021/07/27 07:54:31;;;;;;;;;14.67;14.67;;;;;30.18;51.70;99612.84;3178226;41;3535603;-56
2021/07/27 07:56:58;;;;;;;;;15.50;14.50;;;;;30.30;50.57;99624.06;3191309;41;2808583;-53
2021/07/27 07:59:26;;;;;;;;;18.00;16.50;;;;;30.53;51.16;99615.16;3175575;41;2821045;-55
2021/07/27 08:01:58;;;;;;;;;18.00;15.00;;;;;30.49;50.66;99605.59;3174083;41;2810665;-54
2021/07/27 08:04:26;;;;;;;;;11.67;11.67;;;;;30.54;49.94;99623.22;3176169;41;3507519;-55
2021/07/27 08:06:54;;;;;;;;;17.00;17.00;;;;;30.24;49.45;99633.28;3199606;41;2824201;-55
2021/07/27 08:09:22;;;;;;;;;16.33;13.67;;;;;29.56;52.41;99620.84;3177408;41;3535634;-52
2021/07/27 08:11:50;;;;;;;;;14.67;13.33;;;;;29.98;50.86;99626.81;3195091;41;3521036;-57
2021/07/27 08:14:19;;;;;;;;;12.00;12.00;;;;;29.81;50.80;99628.44;3191902;41;3514809;-56
2021/07/27 08:16:51;;;;;;;;;16.33;13.33;;;;;29.96;50.41;99632.59;3179137;41;2788756;-56
2021/07/27 08:19:21;;;;;;;;;15.00;14.00;;;;;29.75;51.50;99619.94;3191568;41;2778358;-57
2021/07/27 08:21:49;;;;;;;;;15.67;14.33;;;;;30.17;50.74;99624.97;3178851;41;3541856;-57
2021/07/27 08:24:17;;;;;;;;;14.33;14.00;;;;;29.57;51.51;99616.16;3197600;41;3532555;-57
2021/07/27 08:26:45;;;;;;;;;16.33;14.00;;;;;30.09;50.70;99625.25;3195846;41;3529354;-57
2021/07/27 08:29:12;;;;;;;;;12.67;12.67;;;;;29.48;51.27;99624.69;3194276;41;3529357;-57
2021/07/27 08:31:40;;;;;;;;;15.00;13.67;;;;;29.30;51.86;99622.63;3190277;41;2481463;-56
2021/07/27 08:34:08;;;;;;;;;17.00;14.50;;;;;29.61;51.45;99611.88;3191921;41;2814832;-54
2021/07/27 08:36:36;;;;;;;;;15.67;12.00;;;;;29.86;51.54;99615.63;3176968;41;2483563;-56
2021/07/27 08:39:03;;;;;;;;;16.00;14.00;;;;;30.71;49.51;99622.66;3194308;41;3541909;-55
2021/07/27 08:41:33;;;;;;;;;12.67;12.67;;;;;30.71;47.12;99626.28;3194531;41;2489888;-57
2021/07/27 08:44:03;;;;;;;;;13.00;10.33;;;;;30.74;46.67;99624.97;3194662;41;3508529;-57
2021/07/27 08:46:32;;;;;;;;;11.00;11.00;;;;;31.04;45.74;99633.44;3193821;41;3513726;-56
2021/07/27 08:49:01;;;;;;;;;11.33;10.00;;;;;30.31;45.86;99640.47;3180800;41;2787725;-55
2021/07/27 08:51:29;;;;;;;;;10.00;9.67;;;;;30.32;45.00;99636.63;3201934;41;2781488;-57
2021/07/27 08:53:56;;;;;;;;;12.33;10.33;;;;;30.61;46.06;99629.56;3193089;41;3503966;-57
2021/07/27 08:56:24;;;;;;;;;9.33;9.00;;;;;30.33;44.43;99632.81;3195933;41;2763008;-57
2021/07/27 08:58:52;;;;;;;;;11.00;9.33;;;;;30.74;43.59;99642.47;3198164;41;2772100;-58
2021/07/27 09:01:24;;;;;;;;;8.67;7.33;;;;;30.77;43.03;99641.16;3199814;41;2739810;-56
2021/07/27 09:03:54;;;;;;;;;14.50;9.67;;;;;30.73;43.63;99642.69;3203994;41;3532499;-58
2021/07/27 09:06:23;;;;;;;;;9.00;9.00;;;;;30.29;41.91;99642.63;3198923;41;2740852;-56
2021/07/27 09:09:09;;;;;;;;;7.40;7.40;;;;;30.40;43.40;99650.19;3207806;41;2734597;-56
2021/07/27 09:11:48;;;;;;;;;9.67;9.67;;;;;31.09;42.24;99650.25;3177117;41;2776331;-59
2021/07/27 09:14:21;;;;;;;;;7.00;5.60;;;;;31.09;40.93;99647.47;3210071;41;2734671;-60
2021/07/27 09:16:53;;;;;;;;;7.00;6.80;;;;;30.74;41.61;99645.22;3196953;41;2742908;-60
2021/07/27 09:19:20;;;;;;;;;7.00;6.67;;;;;30.97;41.53;99644.63;3178686;41;2737747;-59
2021/07/27 09:21:50;;;;;;;;;7.40;5.60;;;;;30.99;40.68;99647.16;3207976;41;2732511;-59
2021/07/27 09:24:22;;;;;;;;;8.40;6.80;;;;;31.19;40.84;99647.78;3191429;41;2728385;-59
2021/07/27 09:27:11;;;;;;;;;5.40;3.80;;;;;31.35;41.29;99642.72;3204922;41;2735620;-60
2021/07/27 09:29:47;;;;;;;;;5.80;5.80;;;;;31.42;41.60;99649.09;3191873;41;2742904;-60
2021/07/27 09:32:20;;;;;;;;;7.00;6.60;;;;;30.81;41.61;99648.84;3191909;41;2731458;-60
2021/07/27 09:34:48;;;;;;;;;6.33;6.00;;;;;30.91;42.14;99645.53;3185019;41;2737735;-59
2021/07/27 09:37:26;;;;;;;;;11.50;7.00;;;;;30.79;42.29;99653.72;3190304;41;2754398;-59
2021/07/27 09:40:09;;;;;;;;;4.80;3.60;;;;;31.22;41.85;99652.88;3211000;41;2749200;-59
2021/07/27 09:42:38;;;;;;;;;6.00;6.00;;;;;31.07;40.92;99649.66;3185738;41;2734963;-59
2021/07/27 09:45:07;;;;;;;;;6.20;5.40;;;;;30.89;41.70;99653.25;3214680;41;2738808;-59
2021/07/27 09:47:36;;;;;;;;;5.20;5.20;;;;;31.10;42.09;99653.88;3190936;41;2734944;-59
2021/07/27 09:50:05;;;;;;;;;7.00;6.00;;;;;31.24;41.00;99656.28;3179476;41;2734611;-60
2021/07/27 09:52:34;;;;;;;;;6.00;6.00;;;;;31.10;40.93;99653.88;3215035;41;2746044;-59
2021/07/27 09:55:05;;;;;;;;;7.80;4.80;;;;;31.27;40.24;99653.03;3199001;41;2745015;-59
2021/07/27 09:57:34;;;;;;;;;9.00;6.20;;;;;31.20;39.51;99657.84;3191641;41;2756453;-59
2021/07/27 10:00:04;;;;;;;;;5.40;4.00;;;;;31.21;39.00;99669.78;3196439;41;2740841;-59
2021/07/27 10:02:40;;;;;;;;;5.00;5.00;;;;;31.54;40.40;99663.84;3191655;41;2746307;-59
2021/07/27 10:05:11;;;;;;;;;4.80;4.80;;;;;31.38;40.29;99664.47;3187981;41;2739914;-59
2021/07/27 10:07:56;;;;;;;;;5.80;4.60;;;;;31.28;39.79;99668.63;3197176;41;2748127;-59
2021/07/27 10:10:40;;;;;;;;;6.60;6.60;;;;;31.36;40.62;99672.16;3192757;41;2724194;-59
2021/07/27 10:13:13;;;;;;;;;5.33;5.33;;;;;31.59;40.75;99669.56;3195858;41;2738009;-59
2021/07/27 10:15:47;;;;;;;;;5.67;5.67;;;;;30.96;40.77;99672.56;3194426;41;2732523;-59
2021/07/27 10:18:16;;;;;;;;;5.60;5.60;;;;;31.49;41.19;99683.13;3208413;41;2735628;-59
2021/07/27 10:20:44;;;;;;;;;6.33;5.33;;;;;31.60;41.34;99681.53;3180458;41;2735651;-59
2021/07/27 10:23:20;;;;;;;;;4.60;4.60;;;;;31.10;41.97;99679.69;3207736;41;2746064;-60
2021/07/27 10:25:56;;;;;;;;;7.00;5.67;;;;;30.82;42.90;99669.91;3184721;41;2738826;-59
2021/07/27 10:28:27;;;;;;;;;7.20;5.80;;;;;31.41;42.34;99687.09;3205228;41;2740880;-60
2021/07/27 10:31:08;;;;;;;;;5.33;5.33;;;;;31.97;40.80;99678.75;3182797;41;2741929;-59
2021/07/27 10:33:37;;;;;;;;;9.00;7.33;;;;;31.28;41.19;99679.72;3201825;41;2740856;-59
2021/07/27 10:36:04;;;;;;;;;7.67;5.33;;;;;31.31;41.53;99689.50;3200551;41;2746099;-61
2021/07/27 10:38:39;;;;;;;;;7.80;7.80;;;;;31.54;41.69;99693.53;3214203;41;2741902;-59
2021/07/27 10:41:16;;;;;;;;;5.20;5.20;;;;;31.76;41.57;99680.06;3191764;41;2738789;-60
2021/07/27 10:43:44;;;;;;;;;5.67;5.67;;;;;31.83;41.45;99692.75;3179488;41;2740860;-60
2021/07/27 10:46:12;;;;;;;;;8.67;6.33;;;;;31.47;41.65;99686.16;3195126;41;2735962;-62
2021/07/27 10:48:41;;;;;;;;;6.00;6.00;;;;;31.73;41.56;99680.50;3200247;41;2740848;-59
2021/07/27 10:51:09;;;;;;;;;7.00;7.00;;;;;31.84;41.03;99688.91;3201745;41;2744277;-60
2021/07/27 10:53:37;;;;;;;;;7.67;7.33;;;;;31.73;41.95;99686.06;3199698;41;2743983;-59
2021/07/27 10:56:10;;;;;;;;;7.00;7.00;;;;;32.10;41.36;99690.50;3209389;41;2737731;-60
2021/07/27 10:58:38;;;;;;;;;7.33;7.33;;;;;31.76;41.46;99678.13;3175080;41;2741922;-60
2021/07/27 11:01:09;;;;;;;;;6.40;5.00;;;;;31.88;40.71;99679.00;3207099;41;2746059;-60
2021/07/27 11:03:40;;;;;;;;;11.00;8.00;;;;;32.17;41.46;99684.00;3175317;41;3481472;-59
2021/07/27 11:06:08;;;;;;;;;11.00;8.00;;;;;31.55;42.02;99673.91;3192233;41;3487735;-59
2021/07/27 11:08:36;;;;;;;;;9.33;6.67;;;;;31.62;41.58;99680.19;3200382;41;2754440;-60
2021/07/27 11:11:08;;;;;;;;;3.60;2.60;;;;;32.00;40.84;99681.88;3206717;41;2737774;-60
2021/07/27 11:13:37;;;;;;;;;8.00;7.00;;;;;32.27;40.06;99681.50;3198959;41;2733663;-59
2021/07/27 11:16:06;;;;;;;;;7.00;6.40;;;;;31.90;40.63;99681.56;3208497;41;2739791;-59
2021/07/27 11:18:34;;;;;;;;;18.00;8.00;;;;;31.73;42.75;99669.38;3176464;41;3523109;-60
2021/07/27 11:21:05;;;;;;;;;8.00;5.00;;;;;31.83;41.68;99666.91;3207239;41;2742966;-61
2021/07/27 11:23:35;;;;;;;;;9.00;7.00;;;;;31.88;41.43;99662.34;3179557;41;2743981;-61
2021/07/27 11:26:04;;;;;;;;;8.00;5.67;;;;;32.48;40.55;99661.53;3199818;41;2751257;-61
2021/07/27 11:28:40;;;;;;;;;6.00;6.00;;;;;32.12;40.55;99660.56;3211708;41;2735636;-61
2021/07/27 11:31:19;;;;;;;;;11.00;6.67;;;;;31.59;40.99;99652.91;3177343;41;2760670;-61
2021/07/27 11:33:52;;;;;;;;;5.67;5.67;;;;;31.65;40.73;99656.66;3194631;41;2746068;-61
2021/07/27 11:36:25;;;;;;;;;8.00;6.60;;;;;31.98;41.86;99655.44;3210174;41;2737742;-60
2021/07/27 11:39:07;;;;;;;;;6.33;6.33;;;;;32.14;41.13;99650.03;3178934;41;2737719;-60